createdAt,value
2023-05-23T00:00:02.046Z,12.68
2023-05-23T00:02:29.409Z,13.68
2023-05-23T00:04:58.714Z,21.00
2023-05-23T00:07:26.602Z,14.52
2023-05-23T00:09:53.306Z,14.00
2023-05-23T00:12:20.616Z,15.15
2023-05-23T00:14:47.930Z,12.98
2023-05-23T00:17:14.672Z,13.75
2023-05-23T00:22:18.790Z,18.95
2023-05-23T00:24:45.652Z,18.42
2023-05-23T00:27:12.318Z,15.43
2023-05-23T00:29:39.100Z,18.92
2023-05-23T00:32:05.869Z,20.08
2023-05-23T00:34:32.576Z,17.05
2023-05-23T00:37:00.031Z,17.88
2023-05-23T00:39:26.686Z,18.05
2023-05-23T00:41:53.472Z,18.80
2023-05-23T00:44:21.893Z,16.33
2023-05-23T00:46:55.541Z,16.67
2023-05-23T00:49:22.591Z,20.90
2023-05-23T00:51:52.382Z,20.00
2023-05-23T00:54:24.628Z,24.60
2023-05-23T00:56:51.591Z,18.70
2023-05-23T00:59:18.376Z,18.27
2023-05-23T01:01:47.586Z,23.92
2023-05-23T01:04:17.003Z,18.52
2023-05-23T01:06:47.315Z,19.92
2023-05-23T01:09:16.198Z,22.08
2023-05-23T01:12:36.093Z,29.85
2023-05-23T01:15:12.736Z,23.80
2023-05-23T01:20:26.204Z,25.45
2023-05-23T01:23:01.772Z,26.45
2023-05-23T01:25:43.440Z,30.05
2023-05-23T01:28:15.321Z,34.05
2023-05-23T01:30:44.958Z,32.72
2023-05-23T01:33:14.277Z,27.27
2023-05-23T01:35:43.982Z,31.75
2023-05-23T01:38:10.783Z,25.55
2023-05-23T01:40:38.438Z,32.38
2023-05-23T01:43:05.191Z,33.45
2023-05-23T01:45:32.211Z,24.60
2023-05-23T01:47:59.444Z,32.10
2023-05-23T01:50:27.076Z,28.63
2023-05-23T01:52:54.423Z,20.52
2023-05-23T01:55:26.713Z,19.30
2023-05-23T01:57:57.774Z,21.30
2023-05-23T02:03:03.124Z,23.38
2023-05-23T02:05:30.665Z,22.65
2023-05-23T02:07:57.428Z,25.95
2023-05-23T02:10:24.147Z,26.67
2023-05-23T02:12:50.879Z,27.88
2023-05-23T02:15:17.772Z,29.27
2023-05-23T02:17:44.573Z,31.38
2023-05-23T02:20:11.554Z,31.65
2023-05-23T02:22:39.124Z,29.35
2023-05-23T02:25:06.575Z,28.35
2023-05-23T02:27:33.267Z,27.13
2023-05-23T02:29:59.942Z,26.33
2023-05-23T02:32:26.670Z,28.50
2023-05-23T02:37:27.740Z,26.38
2023-05-23T02:39:54.470Z,29.52
2023-05-23T02:42:21.136Z,28.30
2023-05-23T02:44:48.119Z,27.50
2023-05-23T02:47:14.808Z,30.90
2023-05-23T02:49:41.490Z,29.85
2023-05-23T02:52:08.217Z,31.20
2023-05-23T02:54:34.905Z,34.38
2023-05-23T02:57:01.692Z,43.60
2023-05-23T02:59:28.439Z,41.70
2023-05-23T03:01:55.200Z,46.42
2023-05-23T03:04:21.956Z,50.75
2023-05-23T03:06:48.892Z,47.30
2023-05-23T03:09:19.475Z,51.22
2023-05-23T03:11:46.726Z,49.10
2023-05-23T03:14:13.667Z,46.78
2023-05-23T03:16:40.865Z,50.55
2023-05-23T03:19:07.938Z,50.67
2023-05-23T03:21:35.917Z,46.25
2023-05-23T03:24:02.793Z,48.42
2023-05-23T03:26:29.770Z,51.03
2023-05-23T03:28:56.915Z,50.10
2023-05-23T03:31:23.942Z,56.85
2023-05-23T03:33:51.063Z,46.88
2023-05-23T03:36:17.988Z,54.88
2023-05-23T03:38:44.901Z,50.75
2023-05-23T03:41:11.817Z,52.80
2023-05-23T03:43:38.671Z,53.78
2023-05-23T03:46:05.658Z,51.17
2023-05-23T03:48:32.569Z,50.28
2023-05-23T03:53:34.352Z,52.28
2023-05-23T03:56:02.130Z,49.60
2023-05-23T03:58:28.948Z,49.60
2023-05-23T04:00:55.883Z,50.85
2023-05-23T04:03:23.078Z,47.45
2023-05-23T04:05:50.406Z,51.35
2023-05-23T04:08:17.853Z,46.13
2023-05-23T04:10:44.702Z,54.72
2023-05-23T04:13:11.596Z,47.65
2023-05-23T04:18:11.256Z,47.20
2023-05-23T04:20:38.153Z,49.55
2023-05-23T04:23:04.923Z,50.65
2023-05-23T04:25:31.585Z,54.55
2023-05-23T04:27:58.282Z,50.58
2023-05-23T04:30:25.011Z,50.58
2023-05-23T04:32:52.430Z,45.92
2023-05-23T04:35:19.149Z,48.28
2023-05-23T04:37:45.807Z,47.10
2023-05-23T04:40:13.698Z,50.22
2023-05-23T04:42:42.663Z,47.50
2023-05-23T04:45:10.204Z,50.90
2023-05-23T04:47:37.713Z,43.35
2023-05-23T04:50:05.758Z,56.17
2023-05-23T04:52:34.385Z,42.72
2023-05-23T04:55:01.584Z,42.78
2023-05-23T04:57:28.672Z,44.40
2023-05-23T04:59:55.537Z,47.30
2023-05-23T05:02:22.285Z,39.72
2023-05-23T05:07:26.797Z,55.38
2023-05-23T05:09:53.476Z,41.33
2023-05-23T05:12:20.175Z,43.28
2023-05-23T05:14:46.858Z,40.03
2023-05-23T05:17:13.635Z,40.00
2023-05-23T05:19:40.478Z,39.17
2023-05-23T05:22:08.263Z,38.47
2023-05-23T05:24:34.995Z,35.30
2023-05-23T05:27:01.825Z,38.50
2023-05-23T05:29:29.051Z,40.70
2023-05-23T05:31:55.866Z,37.13
2023-05-23T05:34:23.111Z,40.28
2023-05-23T05:36:49.933Z,42.97
2023-05-23T05:39:17.166Z,43.83
2023-05-23T05:41:43.872Z,42.33
2023-05-23T05:44:10.702Z,45.53
2023-05-23T05:49:14.493Z,40.60
2023-05-23T05:51:41.141Z,36.10
2023-05-23T05:54:08.042Z,35.15
2023-05-23T05:56:34.829Z,35.20
2023-05-23T05:59:01.529Z,41.70
2023-05-23T06:01:28.217Z,34.63
2023-05-23T06:03:55.128Z,37.42
2023-05-23T06:06:22.778Z,36.58
2023-05-23T06:08:49.449Z,37.00
2023-05-23T06:11:16.204Z,33.40
2023-05-23T06:13:42.977Z,36.72
2023-05-23T06:16:09.716Z,33.65
2023-05-23T06:18:36.424Z,32.88
2023-05-23T06:21:03.200Z,31.75
2023-05-23T06:23:29.899Z,33.85
2023-05-23T06:25:56.650Z,28.63
2023-05-23T06:28:23.337Z,31.63
2023-05-23T06:30:50.051Z,33.58
2023-05-23T06:33:16.883Z,30.02
2023-05-23T06:35:43.706Z,34.10
2023-05-23T06:38:10.408Z,28.25
2023-05-23T06:40:37.163Z,30.30
2023-05-23T06:43:03.850Z,29.10
2023-05-23T06:45:30.500Z,33.88
2023-05-23T06:47:57.319Z,31.38
2023-05-23T06:52:55.280Z,27.67
2023-05-23T06:55:23.033Z,28.73
2023-05-23T06:57:52.805Z,31.38
2023-05-23T07:00:19.895Z,28.77
2023-05-23T07:02:48.915Z,27.23
2023-05-23T07:05:16.478Z,28.38
2023-05-23T07:07:43.837Z,33.50
2023-05-23T07:10:11.124Z,27.55
2023-05-23T07:12:38.005Z,26.10
2023-05-23T07:15:05.135Z,33.33
2023-05-23T07:17:31.884Z,28.65
2023-05-23T07:19:58.659Z,28.30
2023-05-23T07:22:25.366Z,29.25
2023-05-23T07:24:52.006Z,28.90
2023-05-23T07:27:18.675Z,25.85
2023-05-23T07:29:45.456Z,26.92
2023-05-23T07:32:12.126Z,27.40
2023-05-23T07:37:16.533Z,25.83
2023-05-23T07:39:43.260Z,28.83
2023-05-23T07:42:09.946Z,25.95
2023-05-23T07:44:36.864Z,24.73
2023-05-23T07:47:03.748Z,25.35
2023-05-23T07:49:30.603Z,23.60
2023-05-23T07:51:58.123Z,23.23
2023-05-23T07:54:24.948Z,23.17
2023-05-23T07:56:53.335Z,22.90
2023-05-23T07:59:20.218Z,20.38
2023-05-23T08:01:46.945Z,18.63
2023-05-23T08:04:13.843Z,21.90
2023-05-23T08:06:45.765Z,21.80
2023-05-23T08:09:18.707Z,17.40
2023-05-23T08:11:45.520Z,19.40
2023-05-23T08:14:12.183Z,18.10
2023-05-23T08:16:39.238Z,18.50
2023-05-23T08:19:06.436Z,21.63
2023-05-23T08:21:33.671Z,18.42
2023-05-23T08:24:00.472Z,18.35
2023-05-23T08:26:28.207Z,20.02
2023-05-23T08:28:54.977Z,16.88
2023-05-23T08:31:22.224Z,17.02
2023-05-23T08:33:48.951Z,18.35
2023-05-23T08:36:15.765Z,16.42
2023-05-23T08:38:42.465Z,18.13
2023-05-23T08:41:19.046Z,15.65
2023-05-23T08:43:45.898Z,14.73
2023-05-23T08:46:13.841Z,15.48
2023-05-23T08:48:43.076Z,20.80
2023-05-23T08:51:14.488Z,16.25
2023-05-23T08:53:47.250Z,15.13
2023-05-23T08:56:14.391Z,14.73
2023-05-23T08:58:44.712Z,17.95
2023-05-23T09:01:13.742Z,15.00
2023-05-23T09:03:42.736Z,14.10
2023-05-23T09:06:11.120Z,13.88
2023-05-23T09:08:38.162Z,16.25
2023-05-23T09:11:07.125Z,14.27
2023-05-23T09:13:34.392Z,14.02
2023-05-23T09:16:05.329Z,13.63
2023-05-23T09:18:37.670Z,16.52
2023-05-23T09:21:05.358Z,13.85
2023-05-23T09:23:33.208Z,13.38
2023-05-23T09:26:04.765Z,13.55
2023-05-23T09:28:35.121Z,15.32
2023-05-23T09:31:03.604Z,13.05
2023-05-23T09:33:53.135Z,13.70
2023-05-23T09:36:19.897Z,13.20
2023-05-23T09:41:25.424Z,15.68
2023-05-23T09:43:53.734Z,15.57
2023-05-23T09:49:00.528Z,14.18
2023-05-23T09:51:28.499Z,13.73
2023-05-23T09:53:57.163Z,19.80
2023-05-23T09:56:25.102Z,12.65
2023-05-23T09:58:52.400Z,12.93
2023-05-23T10:01:19.983Z,11.38
2023-05-23T10:03:51.181Z,18.33
2023-05-23T10:06:35.221Z,11.90
2023-05-23T10:09:06.278Z,11.98
2023-05-23T10:11:35.682Z,12.85
2023-05-23T10:16:42.747Z,11.40
2023-05-23T10:19:21.098Z,12.52
2023-05-23T10:21:51.578Z,11.18
2023-05-23T10:24:19.056Z,13.32
2023-05-23T10:26:46.262Z,11.48
2023-05-23T10:29:12.948Z,11.27
2023-05-23T10:31:41.049Z,11.50
2023-05-23T10:34:40.825Z,12.05
2023-05-23T10:37:08.550Z,11.25
2023-05-23T10:40:00.388Z,10.20
2023-05-23T10:42:39.768Z,11.02
2023-05-23T10:48:00.529Z,12.90
2023-05-23T10:50:33.658Z,11.15
2023-05-23T10:53:05.294Z,10.48
2023-05-23T10:55:37.107Z,10.48
2023-05-23T10:58:17.875Z,10.05
2023-05-23T11:00:54.724Z,10.00
2023-05-23T11:03:43.904Z,9.45
2023-05-23T11:06:28.363Z,8.93
2023-05-23T11:09:06.316Z,9.77
2023-05-23T11:12:06.170Z,8.75
2023-05-23T11:14:33.727Z,8.70
2023-05-23T11:17:12.565Z,10.23
2023-05-23T11:19:40.125Z,8.38
2023-05-23T11:22:10.322Z,7.90
2023-05-23T11:24:53.678Z,8.52
2023-05-23T11:27:34.965Z,8.02
2023-05-23T11:30:10.239Z,7.95
2023-05-23T11:32:37.759Z,7.43
2023-05-23T11:35:07.206Z,7.80
2023-05-23T11:37:34.813Z,7.47
2023-05-23T11:40:27.429Z,7.25
2023-05-23T11:42:54.972Z,7.03
2023-05-23T11:45:22.977Z,7.75
2023-05-23T11:47:49.898Z,12.38
2023-05-23T11:50:17.034Z,11.80
2023-05-23T11:52:43.982Z,6.80
2023-05-23T11:55:11.029Z,6.97
2023-05-23T11:57:41.478Z,6.75
2023-05-23T12:00:09.113Z,6.55
2023-05-23T12:02:40.918Z,6.68
2023-05-23T12:05:13.988Z,5.20
2023-05-23T12:07:42.278Z,6.97
2023-05-23T12:10:12.152Z,5.90
2023-05-23T12:12:39.020Z,6.38
2023-05-23T12:15:06.261Z,7.07
2023-05-23T12:17:33.459Z,6.10
2023-05-23T12:20:00.641Z,5.57
2023-05-23T12:22:28.729Z,5.95
2023-05-23T12:24:56.811Z,6.57
2023-05-23T12:27:30.666Z,5.90
2023-05-23T12:30:29.900Z,6.20
2023-05-23T12:32:56.634Z,5.88
2023-05-23T12:35:26.135Z,7.60
2023-05-23T12:37:55.075Z,6.85
2023-05-23T12:40:22.081Z,7.03
2023-05-23T12:42:53.322Z,5.38
2023-05-23T12:45:34.113Z,5.72
2023-05-23T12:48:02.425Z,5.53
2023-05-23T12:50:29.514Z,5.13
2023-05-23T12:52:56.274Z,5.10
2023-05-23T12:55:23.018Z,5.18
2023-05-23T12:57:49.772Z,7.38
2023-05-23T13:00:16.874Z,4.70
2023-05-23T13:02:43.745Z,4.65
2023-05-23T13:05:10.549Z,4.88
2023-05-23T13:07:38.118Z,5.13
2023-05-23T13:10:05.252Z,5.32
2023-05-23T13:12:33.160Z,5.07
2023-05-23T13:14:59.967Z,4.93
2023-05-23T13:17:26.751Z,4.57
2023-05-23T13:19:53.499Z,5.32
2023-05-23T13:22:20.235Z,4.28
2023-05-23T13:27:19.871Z,3.78
2023-05-23T13:29:46.564Z,4.15
2023-05-23T13:34:51.569Z,3.92
2023-05-23T13:37:18.562Z,3.90
2023-05-23T13:39:45.382Z,3.70
2023-05-23T13:42:12.146Z,3.90
2023-05-23T13:44:38.902Z,5.63
2023-05-23T13:47:15.759Z,4.20
2023-05-23T13:49:43.274Z,3.97
2023-05-23T13:52:10.033Z,5.38
2023-05-23T13:54:36.738Z,4.10
2023-05-23T13:57:03.704Z,3.65
2023-05-23T13:59:30.598Z,3.40
2023-05-23T14:01:57.502Z,3.28
2023-05-23T14:04:24.303Z,3.28
2023-05-23T14:09:24.215Z,3.95
2023-05-23T14:11:52.542Z,3.28
2023-05-23T14:14:19.329Z,3.55
2023-05-23T14:16:46.328Z,3.53
2023-05-23T14:19:13.195Z,3.50
2023-05-23T14:21:40.034Z,3.97
2023-05-23T14:24:06.796Z,3.90
2023-05-23T14:26:33.484Z,3.30
2023-05-23T14:29:00.191Z,3.08
2023-05-23T14:31:26.992Z,3.60
2023-05-23T14:33:53.774Z,3.10
2023-05-23T14:36:20.549Z,3.10
2023-05-23T14:38:47.295Z,3.15
2023-05-23T14:41:14.396Z,2.80
2023-05-23T14:43:41.293Z,2.92
2023-05-23T14:48:46.426Z,3.30
2023-05-23T14:51:21.472Z,2.72
2023-05-23T14:53:53.968Z,2.83
2023-05-23T14:56:20.890Z,2.60
2023-05-23T14:58:47.761Z,2.90
2023-05-23T15:01:14.696Z,3.10
2023-05-23T15:03:41.700Z,3.10
2023-05-23T15:06:08.911Z,2.70
2023-05-23T15:08:36.010Z,3.65
2023-05-23T15:11:02.890Z,5.13
2023-05-23T15:16:01.744Z,3.15
2023-05-23T15:18:39.869Z,3.67
2023-05-23T15:21:08.117Z,2.72
2023-05-23T15:23:34.838Z,3.42
2023-05-23T15:26:01.597Z,3.00
2023-05-23T15:28:28.308Z,2.90
2023-05-23T15:30:57.262Z,2.83
2023-05-23T15:33:24.084Z,3.25
2023-05-23T15:35:51.439Z,3.05
2023-05-23T15:38:20.065Z,5.97
2023-05-23T15:40:49.076Z,12.27
2023-05-23T15:43:15.909Z,6.30
2023-05-23T15:45:42.769Z,4.13
2023-05-23T15:50:42.086Z,3.15
2023-05-23T15:53:09.161Z,2.65
2023-05-23T15:55:37.187Z,3.28
2023-05-23T15:58:05.308Z,3.92
2023-05-23T16:00:32.124Z,2.92
2023-05-23T16:02:59.035Z,2.72
2023-05-23T16:05:26.162Z,3.42
2023-05-23T16:07:52.859Z,3.47
2023-05-23T16:10:20.104Z,2.85
2023-05-23T16:12:46.788Z,3.08
2023-05-23T16:15:13.455Z,3.03
2023-05-23T16:17:40.122Z,3.33
2023-05-23T16:20:07.979Z,3.55
2023-05-23T16:22:34.712Z,4.00
2023-05-23T16:27:33.216Z,3.90
2023-05-23T16:29:59.913Z,3.83
2023-05-23T16:32:28.308Z,8.98
2023-05-23T16:34:55.060Z,3.50
2023-05-23T16:37:21.765Z,3.67
2023-05-23T16:39:48.464Z,3.75
2023-05-23T16:42:15.255Z,4.47
2023-05-23T16:47:13.306Z,5.35
2023-05-23T16:49:39.990Z,4.68
2023-05-23T16:52:06.803Z,5.47
2023-05-23T16:54:33.579Z,6.82
2023-05-23T16:57:02.183Z,4.93
2023-05-23T16:59:30.130Z,6.55
2023-05-23T17:01:57.205Z,5.28
2023-05-23T17:04:24.260Z,5.63
2023-05-23T17:06:51.258Z,4.22
2023-05-23T17:09:18.391Z,3.88
2023-05-23T17:11:45.319Z,4.35
2023-05-23T17:14:12.094Z,5.60
2023-05-23T17:16:39.021Z,4.78
2023-05-23T17:19:05.891Z,4.35
2023-05-23T17:21:33.104Z,5.20
2023-05-23T17:23:59.950Z,4.53
2023-05-23T17:26:27.597Z,4.25
2023-05-23T17:28:54.345Z,5.20
2023-05-23T17:31:21.651Z,4.72
2023-05-23T17:33:48.384Z,4.60
2023-05-23T17:38:54.007Z,8.32
2023-05-23T17:41:23.529Z,4.45
2023-05-23T17:43:50.911Z,6.63
2023-05-23T17:46:17.671Z,3.78
2023-05-23T17:48:46.963Z,4.93
2023-05-23T17:51:15.483Z,3.80
2023-05-23T17:53:42.625Z,3.92
2023-05-23T17:56:09.669Z,3.67
2023-05-23T17:58:41.697Z,3.85
2023-05-23T18:01:11.861Z,3.10
2023-05-23T18:03:39.728Z,3.75
2023-05-23T18:06:07.104Z,3.08
2023-05-23T18:08:34.152Z,3.47
2023-05-23T18:11:00.884Z,3.42
2023-05-23T18:13:27.601Z,4.80
2023-05-23T18:15:54.262Z,3.55
2023-05-23T18:18:21.265Z,2.05
2023-05-23T18:20:58.780Z,2.15
2023-05-23T18:23:25.791Z,2.10
2023-05-23T18:25:52.967Z,1.95
2023-05-23T18:28:19.797Z,2.15
2023-05-23T18:30:46.489Z,4.13
2023-05-23T18:33:13.306Z,2.22
2023-05-23T18:35:40.447Z,1.95
2023-05-23T18:38:07.590Z,4.07
2023-05-23T18:40:34.363Z,4.57
2023-05-23T18:43:01.127Z,2.20
2023-05-23T18:45:27.916Z,3.20
2023-05-23T18:47:55.135Z,1.70
2023-05-23T18:50:21.865Z,2.03
2023-05-23T18:52:48.579Z,1.63
2023-05-23T18:55:16.585Z,1.30
2023-05-23T18:57:43.292Z,2.05
2023-05-23T19:02:48.934Z,5.40
2023-05-23T19:05:15.913Z,3.25
2023-05-23T19:07:42.589Z,1.70
2023-05-23T19:10:09.736Z,1.75
2023-05-23T19:12:36.568Z,1.90
2023-05-23T19:15:03.805Z,2.00
2023-05-23T19:17:31.221Z,2.75
2023-05-23T19:19:58.071Z,1.98
2023-05-23T19:22:25.642Z,1.50
2023-05-23T19:24:54.438Z,1.98
2023-05-23T19:27:21.197Z,2.08
2023-05-23T19:29:47.899Z,4.32
2023-05-23T19:32:14.670Z,1.85
2023-05-23T19:34:41.764Z,1.85
2023-05-23T19:37:08.433Z,2.13
2023-05-23T19:39:35.182Z,1.80
2023-05-23T19:42:01.860Z,1.95
2023-05-23T19:44:28.632Z,1.90
2023-05-23T19:46:55.345Z,1.80
2023-05-23T19:49:22.036Z,2.00
2023-05-23T19:51:49.036Z,1.88
2023-05-23T19:54:15.781Z,2.10
2023-05-23T19:56:42.635Z,2.17
2023-05-23T19:59:09.374Z,2.05
2023-05-23T20:01:36.113Z,2.08
2023-05-23T20:04:02.984Z,4.03
2023-05-23T20:06:29.768Z,2.08
2023-05-23T20:08:56.478Z,2.30
2023-05-23T20:13:56.984Z,2.10
2023-05-23T20:16:23.780Z,2.60
2023-05-23T20:18:50.677Z,2.20
2023-05-23T20:21:17.503Z,2.42
2023-05-23T20:23:45.284Z,2.13
2023-05-23T20:26:12.255Z,2.38
2023-05-23T20:28:38.938Z,1.98
2023-05-23T20:31:05.839Z,2.60
2023-05-23T20:33:34.550Z,2.65
2023-05-23T20:36:01.862Z,2.40
2023-05-23T20:38:29.209Z,3.88
2023-05-23T20:40:55.928Z,2.13
2023-05-23T20:43:22.812Z,1.90
2023-05-23T20:45:49.562Z,2.42
2023-05-23T20:48:16.486Z,2.85
2023-05-23T20:50:44.359Z,2.05
2023-05-23T20:53:11.335Z,4.45
2023-05-23T20:55:38.327Z,5.85
2023-05-23T20:58:05.077Z,2.33
2023-05-23T21:00:31.791Z,2.67
2023-05-23T21:02:58.669Z,2.63
2023-05-23T21:05:25.588Z,2.25
2023-05-23T21:07:52.300Z,2.47
2023-05-23T21:10:19.104Z,3.88
2023-05-23T21:12:50.341Z,2.53
2023-05-23T21:15:17.655Z,2.30
2023-05-23T21:17:44.821Z,2.53
2023-05-23T21:20:12.404Z,2.55
2023-05-23T21:22:39.531Z,2.80
2023-05-23T21:25:06.628Z,2.50
2023-05-23T21:27:33.399Z,2.80
2023-05-23T21:30:00.092Z,2.95
2023-05-23T21:32:26.998Z,2.58
2023-05-23T21:34:53.694Z,2.70
2023-05-23T21:37:20.567Z,2.75
2023-05-23T21:39:51.876Z,2.78
2023-05-23T21:42:19.795Z,3.83
2023-05-23T21:44:46.553Z,3.20
2023-05-23T21:47:13.542Z,3.60
2023-05-23T21:49:40.701Z,3.13
2023-05-23T21:52:07.374Z,2.20
2023-05-23T21:54:34.246Z,2.83
2023-05-23T21:57:00.952Z,3.38
2023-05-23T21:59:27.695Z,4.82
2023-05-23T22:01:54.720Z,4.03
2023-05-23T22:04:21.723Z,3.15
2023-05-23T22:09:19.804Z,2.90
2023-05-23T22:11:46.624Z,3.38
2023-05-23T22:14:13.359Z,2.72
2023-05-23T22:16:40.239Z,2.65
2023-05-23T22:19:09.879Z,2.92
2023-05-23T22:21:37.102Z,2.77
2023-05-23T22:24:04.171Z,2.80
2023-05-23T22:26:31.227Z,2.67
2023-05-23T22:28:57.979Z,3.00
2023-05-23T22:31:24.843Z,3.00
2023-05-23T22:33:51.683Z,4.03
2023-05-23T22:36:18.677Z,3.20
2023-05-23T22:38:45.864Z,3.10
2023-05-23T22:41:12.768Z,4.60
2023-05-23T22:43:39.814Z,3.72
2023-05-23T22:46:07.090Z,3.20
2023-05-23T22:48:34.377Z,2.73
2023-05-23T22:51:04.118Z,2.88
2023-05-23T22:56:04.438Z,3.15
2023-05-23T22:58:31.515Z,2.95
2023-05-23T23:00:58.303Z,2.75
2023-05-23T23:03:25.006Z,3.08
2023-05-23T23:05:51.754Z,4.18
2023-05-23T23:08:19.579Z,2.83
2023-05-23T23:10:46.483Z,2.53
2023-05-23T23:13:14.318Z,2.75
2023-05-23T23:15:42.974Z,3.13
2023-05-23T23:18:10.082Z,3.33
2023-05-23T23:20:37.035Z,3.37
2023-05-23T23:23:03.905Z,3.37
2023-05-23T23:25:30.645Z,3.92
2023-05-23T23:27:57.372Z,4.17
2023-05-23T23:33:01.931Z,3.13
2023-05-23T23:35:28.800Z,2.93
2023-05-23T23:37:55.505Z,3.13
2023-05-23T23:40:22.229Z,2.80
2023-05-23T23:42:48.921Z,3.90
2023-05-23T23:45:15.821Z,2.72
2023-05-23T23:47:43.091Z,4.77
2023-05-23T23:50:09.975Z,2.70
2023-05-23T23:52:39.274Z,2.72
2023-05-23T23:55:06.726Z,3.95
2023-05-23T23:57:33.705Z,3.05
